Time;durP1;ratioP1;P1;durP2;ratioP2;P2;SDS_P1;SDS_P2;PMS_P1;PMS_P2;Temp;Humidity;BMP_temperature;BMP_pressure;BME280_temperature;BME280_humidity;BME280_pressure;Samples;Min_cycle;Max_cycle;Signal;HPM_P1;HPM_P2
2022/03/04 00:00:38;;;;;;;13.18;11.05;;;-7.50;99.90;;;;;;5085137;28;20660;-62
2022/03/04 00:03:19;;;;;;;12.52;11.45;;;-7.40;99.90;;;;;;5146532;27;20657;-62
2022/03/04 00:05:59;;;;;;;11.68;10.75;;;-7.50;99.90;;;;;;5105218;27;20542;-61
2022/03/04 00:08:39;;;;;;;10.18;9.13;;;-7.60;99.90;;;;;;5084210;28;20543;-62
2022/03/04 00:11:19;;;;;;;10.35;9.55;;;-7.60;99.90;;;;;;5084034;27;20539;-62
2022/03/04 00:13:59;;;;;;;11.30;10.40;;;-7.70;99.90;;;;;;5102396;27;20942;-62
2022/03/04 00:16:38;;;;;;;12.60;11.52;;;-7.80;99.90;;;;;;5084863;28;21022;-62
2022/03/04 00:19:18;;;;;;;11.40;10.45;;;-7.90;99.90;;;;;;5104683;27;20570;-61
2022/03/04 00:21:58;;;;;;;11.02;10.05;;;-7.90;99.90;;;;;;5085390;28;20684;-62
2022/03/04 00:24:38;;;;;;;9.13;8.43;;;-7.90;99.90;;;;;;5105049;27;20584;-62
2022/03/04 00:27:17;;;;;;;11.27;10.38;;;-7.90;99.90;;;;;;5104192;27;20689;-62
2022/03/04 00:29:58;;;;;;;11.27;10.27;;;-8.00;99.90;;;;;;5145631;27;20542;-62
2022/03/04 00:32:37;;;;;;;10.85;9.95;;;-8.10;99.90;;;;;;5104686;27;21155;-62
2022/03/04 00:35:17;;;;;;;11.63;10.50;;;-8.10;99.90;;;;;;5105133;27;20557;-62
2022/03/04 00:37:57;;;;;;;10.75;9.75;;;-8.00;99.90;;;;;;5083636;27;20561;-61
2022/03/04 00:40:37;;;;;;;11.60;10.57;;;-8.10;99.90;;;;;;5125392;27;20667;-62
2022/03/04 00:43:18;;;;;;;12.52;11.25;;;-8.00;99.90;;;;;;5084432;28;21040;-62
2022/03/04 00:45:58;;;;;;;11.48;10.45;;;-8.00;99.90;;;;;;5125460;27;20699;-62
2022/03/04 00:48:38;;;;;;;11.02;10.10;;;-7.90;99.90;;;;;;5084156;28;20552;-62
2022/03/04 00:51:17;;;;;;;12.20;11.20;;;-7.90;99.90;;;;;;5084236;27;20539;-62
2022/03/04 00:53:57;;;;;;;11.93;10.98;;;-7.90;99.90;;;;;;5125172;27;20536;-62
2022/03/04 00:56:37;;;;;;;10.10;9.18;;;-8.00;99.90;;;;;;5125431;27;21271;-62
2022/03/04 00:59:17;;;;;;;10.55;9.50;;;-8.10;99.90;;;;;;5083392;28;20671;-62
2022/03/04 01:01:57;;;;;;;10.45;9.55;;;-8.10;99.90;;;;;;5084518;27;20999;-62
2022/03/04 01:04:37;;;;;;;12.18;11.18;;;-8.10;99.90;;;;;;5105206;27;20984;-62
2022/03/04 01:07:16;;;;;;;10.43;9.52;;;-8.10;99.90;;;;;;5104693;27;20537;-62
2022/03/04 01:09:56;;;;;;;10.10;9.27;;;-8.10;99.90;;;;;;5083554;28;20663;-62
2022/03/04 01:12:36;;;;;;;11.15;10.07;;;-8.10;99.90;;;;;;5125685;27;20537;-62
2022/03/04 01:15:16;;;;;;;11.95;10.95;;;-8.20;99.90;;;;;;5084888;28;20684;-62
2022/03/04 01:17:56;;;;;;;11.60;10.60;;;-8.30;99.90;;;;;;5084115;27;20539;-62
2022/03/04 01:20:36;;;;;;;10.95;9.95;;;-8.20;99.90;;;;;;5125901;27;20543;-61
2022/03/04 01:23:16;;;;;;;12.07;10.98;;;-8.30;99.90;;;;;;5085069;28;20551;-61
2022/03/04 01:25:56;;;;;;;12.18;11.00;;;-8.30;99.90;;;;;;5084879;27;20556;-62
2022/03/04 01:28:37;;;;;;;10.20;9.40;;;-8.20;99.90;;;;;;5144700;27;20665;-62
2022/03/04 01:31:16;;;;;;;11.00;10.00;;;-8.20;99.90;;;;;;5085204;28;20664;-62
2022/03/04 01:33:56;;;;;;;10.15;9.35;;;-8.20;99.90;;;;;;5084911;28;20679;-62
2022/03/04 01:36:36;;;;;;;11.15;10.35;;;-8.20;99.90;;;;;;5084882;28;20672;-60
2022/03/04 01:39:16;;;;;;;10.57;9.70;;;-8.30;99.90;;;;;;5083520;27;21036;-62
2022/03/04 01:41:56;;;;;;;10.40;9.48;;;-8.40;99.90;;;;;;5084429;28;20668;-62
2022/03/04 01:44:36;;;;;;;9.25;8.55;;;-8.40;99.90;;;;;;5124431;27;20551;-62
2022/03/04 01:47:16;;;;;;;9.65;8.95;;;-8.40;99.90;;;;;;5104169;27;21284;-62
2022/03/04 01:49:55;;;;;;;8.95;8.15;;;-8.30;99.90;;;;;;5104847;27;20573;-62
2022/03/04 01:52:35;;;;;;;9.43;8.73;;;-8.40;99.90;;;;;;5084601;28;21018;-62
2022/03/04 01:55:15;;;;;;;9.60;8.70;;;-8.60;99.90;;;;;;5084336;27;20925;-62
2022/03/04 01:57:55;;;;;;;10.77;9.93;;;-8.60;99.90;;;;;;5083584;28;20679;-62
2022/03/04 02:00:35;;;;;;;10.88;8.93;;;-8.60;99.90;;;;;;5135350;27;20687;-62
2022/03/04 02:03:14;;;;;;;10.95;10.05;;;-8.70;99.90;;;;;;5063633;28;20682;-62
2022/03/04 02:05:54;;;;;;;10.27;9.38;;;-8.80;99.90;;;;;;5124397;27;21076;-62
2022/03/04 02:08:34;;;;;;;10.07;9.23;;;-8.80;99.90;;;;;;5102753;27;20756;-62
2022/03/04 02:11:15;;;;;;;11.13;10.00;;;-8.80;99.90;;;;;;5100141;27;20542;-62
2022/03/04 02:13:54;;;;;;;11.73;10.63;;;-8.80;99.90;;;;;;5078584;28;20682;-62
2022/03/04 02:16:39;;;;;;;11.60;10.52;;;-8.80;99.90;;;;;;5087859;27;21184;-62
2022/03/04 02:19:20;;;;;;;10.45;9.55;;;-8.80;99.90;;;;;;5138408;27;21182;-62
2022/03/04 02:22:01;;;;;;;9.38;8.68;;;-8.80;99.90;;;;;;5145856;27;20851;-62
2022/03/04 02:24:41;;;;;;;9.52;8.75;;;-8.80;99.90;;;;;;5083357;27;20559;-62
2022/03/04 02:27:21;;;;;;;10.63;9.73;;;-8.70;99.90;;;;;;5145481;27;20542;-62
2022/03/04 02:30:01;;;;;;;11.00;10.00;;;-8.70;99.90;;;;;;5124609;27;20536;-62
2022/03/04 02:32:41;;;;;;;9.95;9.05;;;-8.80;99.90;;;;;;5138535;27;20947;-62
2022/03/04 02:35:20;;;;;;;11.20;10.27;;;-8.80;99.90;;;;;;5068372;28;21222;-62
2022/03/04 02:38:01;;;;;;;10.05;9.30;;;-8.80;99.90;;;;;;5083819;28;20667;-63
2022/03/04 02:40:40;;;;;;;10.30;9.50;;;-8.70;99.90;;;;;;5084077;27;20567;-62
2022/03/04 02:43:20;;;;;;;10.80;9.80;;;-8.70;99.90;;;;;;5103214;27;20666;-62
2022/03/04 02:46:00;;;;;;;9.77;9.02;;;-8.70;99.90;;;;;;5090935;27;20715;-62
2022/03/04 02:48:40;;;;;;;10.68;9.77;;;-8.80;99.90;;;;;;5082640;28;21025;-62
2022/03/04 02:51:19;;;;;;;9.32;8.48;;;-8.80;99.90;;;;;;5082735;27;20982;-61
2022/03/04 02:53:59;;;;;;;9.23;8.52;;;-8.80;99.90;;;;;;5125905;27;20581;-62
2022/03/04 02:56:39;;;;;;;10.80;9.90;;;-8.80;99.90;;;;;;5096488;27;20995;-62
2022/03/04 02:59:19;;;;;;;10.43;9.52;;;-8.80;99.90;;;;;;5084943;27;20628;-61
2022/03/04 03:01:59;;;;;;;11.48;10.43;;;-8.90;99.90;;;;;;5101271;27;20565;-62
2022/03/04 03:04:38;;;;;;;10.60;9.60;;;-9.00;99.90;;;;;;5106784;27;21090;-62
2022/03/04 03:07:18;;;;;;;10.50;9.60;;;-9.00;99.90;;;;;;5083364;28;20556;-62
2022/03/04 03:09:58;;;;;;;10.30;9.45;;;-9.00;99.90;;;;;;5081480;27;20589;-62
2022/03/04 03:12:38;;;;;;;11.23;10.10;;;-9.00;99.90;;;;;;5137055;27;20563;-62
2022/03/04 03:15:18;;;;;;;10.20;9.40;;;-9.00;99.90;;;;;;5065799;28;20744;-62
2022/03/04 03:17:58;;;;;;;10.88;9.98;;;-8.90;99.90;;;;;;5078125;28;20682;-62
2022/03/04 03:20:37;;;;;;;10.95;9.95;;;-8.80;99.90;;;;;;5124937;27;20548;-62
2022/03/04 03:23:18;;;;;;;10.10;9.30;;;-8.90;99.90;;;;;;5083841;28;20564;-61
2022/03/04 03:25:57;;;;;;;10.38;9.50;;;-9.00;99.90;;;;;;5066174;28;20765;-62
2022/03/04 03:28:37;;;;;;;10.57;9.68;;;-9.00;99.90;;;;;;5083345;27;20543;-62
2022/03/04 03:31:17;;;;;;;10.07;9.27;;;-9.10;99.90;;;;;;5104714;27;21087;-62
2022/03/04 03:33:56;;;;;;;11.65;10.52;;;-9.10;99.90;;;;;;5083944;28;20667;-61
2022/03/04 03:36:36;;;;;;;10.77;9.88;;;-9.10;99.90;;;;;;5084555;28;20663;-62
2022/03/04 03:39:16;;;;;;;10.40;9.60;;;-9.00;99.90;;;;;;5083447;28;20549;-62
2022/03/04 03:41:56;;;;;;;9.60;8.80;;;-9.00;99.90;;;;;;5105378;27;20872;-62
2022/03/04 03:44:36;;;;;;;10.57;9.77;;;-9.00;99.90;;;;;;5084732;27;20555;-62
2022/03/04 03:47:16;;;;;;;9.60;8.90;;;-9.00;99.90;;;;;;5083896;28;20542;-62
2022/03/04 03:49:56;;;;;;;12.43;11.02;;;-9.00;99.90;;;;;;5084397;28;20679;-61
2022/03/04 03:52:36;;;;;;;11.27;10.23;;;-9.00;99.90;;;;;;5084689;28;20675;-62
2022/03/04 03:55:15;;;;;;;12.52;10.27;;;-9.00;99.90;;;;;;5084109;27;20547;-62
2022/03/04 03:57:55;;;;;;;11.32;10.32;;;-9.00;99.90;;;;;;5145066;27;20538;-62
2022/03/04 04:00:35;;;;;;;11.50;10.40;;;-9.00;99.90;;;;;;5060653;27;21138;-62
2022/03/04 04:03:15;;;;;;;11.00;10.00;;;-9.10;99.90;;;;;;5080293;28;20668;-62
2022/03/04 04:05:54;;;;;;;11.27;10.27;;;-9.00;99.90;;;;;;5144882;27;20558;-62
2022/03/04 04:08:34;;;;;;;10.35;9.48;;;-9.00;99.90;;;;;;5082667;27;20579;-62
2022/03/04 04:11:14;;;;;;;11.18;10.18;;;-9.00;99.90;;;;;;5084116;27;20569;-61
2022/03/04 04:13:54;;;;;;;11.25;10.35;;;-9.00;99.90;;;;;;5147066;27;20542;-62
2022/03/04 04:16:34;;;;;;;11.25;10.25;;;-9.00;99.90;;;;;;5085035;28;20644;-62
2022/03/04 04:19:14;;;;;;;12.40;11.25;;;-9.00;99.90;;;;;;5082552;28;20539;-62
2022/03/04 04:21:54;;;;;;;11.30;10.30;;;-9.00;99.90;;;;;;5081022;27;20552;-62
2022/03/04 04:24:33;;;;;;;12.13;11.13;;;-9.00;99.90;;;;;;5084219;28;20574;-62
2022/03/04 04:27:13;;;;;;;11.35;10.45;;;-9.00;99.90;;;;;;5084112;27;20926;-62
2022/03/04 04:29:54;;;;;;;11.55;10.55;;;-9.00;99.90;;;;;;5145979;27;20539;-62
2022/03/04 04:32:33;;;;;;;11.93;10.93;;;-9.00;99.90;;;;;;5084700;27;20573;-62
2022/03/04 04:35:14;;;;;;;11.43;10.52;;;-9.10;99.90;;;;;;5104282;27;20550;-62
2022/03/04 04:37:52;;;;;;;11.48;10.38;;;-9.10;99.90;;;;;;5104243;27;21074;-62
2022/03/04 04:40:32;;;;;;;11.80;10.80;;;-9.20;99.90;;;;;;5084094;27;21065;-62
2022/03/04 04:43:12;;;;;;;16.20;10.68;;;-9.20;99.90;;;;;;5084075;28;20676;-62
2022/03/04 04:45:53;;;;;;;13.65;12.25;;;-9.20;99.90;;;;;;5145908;27;20666;-62
2022/03/04 04:48:33;;;;;;;13.05;11.93;;;-9.20;99.90;;;;;;5077627;28;21096;-62
2022/03/04 04:51:13;;;;;;;12.45;11.35;;;-9.20;99.90;;;;;;5083954;27;21477;-61
2022/03/04 04:53:53;;;;;;;12.77;11.70;;;-9.10;99.90;;;;;;5083956;28;20667;-62
2022/03/04 04:56:33;;;;;;;12.38;11.27;;;-9.00;99.90;;;;;;5084460;27;20543;-62
2022/03/04 04:59:13;;;;;;;13.40;10.77;;;-9.00;99.90;;;;;;5083071;27;20567;-62
2022/03/04 05:01:54;;;;;;;11.80;10.80;;;-9.10;99.90;;;;;;5084522;28;20664;-62
2022/03/04 05:04:34;;;;;;;12.82;11.52;;;-9.10;99.90;;;;;;5104169;27;20666;-62
2022/03/04 05:07:14;;;;;;;12.68;11.55;;;-9.10;99.90;;;;;;5083837;27;20561;-61
2022/03/04 05:09:53;;;;;;;12.90;11.68;;;-9.10;99.90;;;;;;5144983;27;20534;-62
2022/03/04 05:12:33;;;;;;;12.50;11.43;;;-9.20;99.90;;;;;;5104247;27;20542;-61
2022/03/04 05:15:13;;;;;;;12.48;11.18;;;-9.20;99.90;;;;;;5084488;28;20577;-62
2022/03/04 05:17:53;;;;;;;12.95;11.85;;;-9.20;99.90;;;;;;5083914;27;20550;-62
2022/03/04 05:20:33;;;;;;;13.77;12.25;;;-9.30;99.90;;;;;;5083761;27;20532;-62
2022/03/04 05:23:58;;;;;;;13.77;12.52;;;-9.20;99.90;;;;;;5104552;27;21070;-62
2022/03/04 05:26:13;;;;;;;17.05;15.30;;;-9.20;99.90;;;;;;5083862;28;21189;-62
2022/03/04 05:28:53;;;;;;;14.50;13.20;;;-9.30;99.90;;;;;;5083448;27;20679;-62
2022/03/04 05:31:33;;;;;;;15.85;14.27;;;-9.20;99.90;;;;;;5084843;28;20691;-62
2022/03/04 05:34:13;;;;;;;12.65;11.63;;;-9.30;99.90;;;;;;5084113;28;20676;-62
2022/03/04 05:36:53;;;;;;;13.27;12.07;;;-9.30;99.90;;;;;;5083899;27;20539;-62
2022/03/04 05:39:32;;;;;;;12.65;11.43;;;-9.40;99.90;;;;;;5083392;27;20555;-62
2022/03/04 05:42:12;;;;;;;13.38;12.05;;;-9.40;99.90;;;;;;5104564;27;20670;-62
2022/03/04 05:44:52;;;;;;;13.88;12.73;;;-9.40;99.90;;;;;;5084034;28;20676;-61
2022/03/04 05:47:32;;;;;;;11.77;10.77;;;-9.40;99.90;;;;;;5083323;28;20672;-62
2022/03/04 05:50:13;;;;;;;12.32;11.13;;;-9.50;99.90;;;;;;5084143;27;20573;-62
2022/03/04 05:52:53;;;;;;;11.98;10.93;;;-9.50;99.90;;;;;;5146411;27;20653;-62
2022/03/04 05:55:34;;;;;;;11.27;10.38;;;-9.50;99.90;;;;;;5084549;28;20707;-62
2022/03/04 05:58:13;;;;;;;12.48;11.10;;;-9.50;99.90;;;;;;5083808;28;20561;-61
2022/03/04 06:00:53;;;;;;;12.80;11.55;;;-9.40;99.90;;;;;;5102680;27;21003;-61
2022/03/04 06:03:33;;;;;;;13.10;12.00;;;-9.40;99.90;;;;;;5129330;27;20691;-62
2022/03/04 06:06:13;;;;;;;12.18;11.27;;;-9.30;99.90;;;;;;5139285;27;20989;-62
2022/03/04 06:08:52;;;;;;;12.77;11.65;;;-9.30;99.90;;;;;;5143349;27;20550;-62
2022/03/04 06:11:32;;;;;;;11.98;10.95;;;-9.20;99.90;;;;;;5104482;27;20555;-61
2022/03/04 06:14:12;;;;;;;12.57;11.38;;;-9.20;99.90;;;;;;5133675;27;21104;-62
2022/03/04 06:16:52;;;;;;;11.98;10.82;;;-9.10;99.90;;;;;;5084490;28;21175;-62
2022/03/04 06:19:31;;;;;;;12.10;11.00;;;-9.00;99.90;;;;;;5104516;27;20534;-62
2022/03/04 06:22:11;;;;;;;12.88;11.68;;;-8.90;99.90;;;;;;5084467;28;20952;-61
2022/03/04 06:24:51;;;;;;;14.85;13.57;;;-8.90;99.90;;;;;;5083811;28;20552;-62
2022/03/04 06:27:31;;;;;;;13.82;12.70;;;-8.80;99.90;;;;;;5083548;27;20581;-62
2022/03/04 06:30:11;;;;;;;12.82;11.63;;;-8.60;99.90;;;;;;5083912;27;20920;-62
2022/03/04 06:32:51;;;;;;;12.48;11.43;;;-8.60;99.90;;;;;;5084548;27;20556;-62
2022/03/04 06:35:30;;;;;;;12.15;11.05;;;-8.40;99.90;;;;;;5145637;27;20558;-62
2022/03/04 06:38:10;;;;;;;15.38;13.88;;;-8.30;99.90;;;;;;5104217;27;20538;-62
2022/03/04 06:40:51;;;;;;;15.35;13.88;;;-8.10;99.90;;;;;;5094946;27;20581;-62
2022/03/04 06:43:30;;;;;;;15.40;14.00;;;-7.80;99.90;;;;;;5139828;27;20669;-61
2022/03/04 06:46:10;;;;;;;16.45;15.00;;;-7.70;99.90;;;;;;5110705;27;20709;-62
2022/03/04 06:48:50;;;;;;;16.95;15.43;;;-7.60;99.90;;;;;;5134137;27;20601;-62
2022/03/04 06:51:29;;;;;;;21.63;19.33;;;-7.50;99.90;;;;;;5104286;27;20700;-61
2022/03/04 06:54:09;;;;;;;22.50;19.48;;;-7.30;99.90;;;;;;5148300;27;20691;-61
2022/03/04 06:56:49;;;;;;;23.70;21.10;;;-7.20;99.90;;;;;;5083148;28;21076;-61
2022/03/04 06:59:29;;;;;;;25.48;22.83;;;-7.00;99.90;;;;;;5082641;28;20547;-61
2022/03/04 07:02:10;;;;;;;19.30;17.38;;;-6.90;99.90;;;;;;5079000;28;20561;-61
2022/03/04 07:04:50;;;;;;;26.23;23.45;;;-6.70;99.90;;;;;;5082565;28;21011;-61
2022/03/04 07:07:30;;;;;;;29.33;25.63;;;-6.50;99.90;;;;;;5080542;27;21088;-61
2022/03/04 07:10:10;;;;;;;28.23;25.20;;;-6.40;99.90;;;;;;5082178;27;20563;-61
2022/03/04 07:12:50;;;;;;;31.30;26.50;;;-6.30;99.90;;;;;;5082582;28;20535;-61
2022/03/04 07:15:30;;;;;;;35.30;31.55;;;-6.10;99.90;;;;;;5107426;27;20697;-61
2022/03/04 07:18:09;;;;;;;101.65;77.78;;;-5.90;99.90;;;;;;5102796;27;21030;-61
2022/03/04 07:20:49;;;;;;;91.43;68.50;;;-5.80;99.90;;;;;;5084089;27;21104;-61
2022/03/04 07:23:29;;;;;;;72.10;56.08;;;-5.60;99.90;;;;;;5084397;27;20555;-60
2022/03/04 07:26:10;;;;;;;66.90;51.83;;;-5.40;99.90;;;;;;5083541;28;20667;-61
2022/03/04 07:28:50;;;;;;;44.10;36.78;;;-5.20;99.90;;;;;;5058424;27;20719;-61
2022/03/04 07:31:30;;;;;;;32.90;27.55;;;-5.00;99.90;;;;;;5077971;28;20699;-61
2022/03/04 07:34:12;;;;;;;24.00;21.25;;;-4.70;99.90;;;;;;5105019;27;20572;-60
2022/03/04 07:36:53;;;;;;;24.23;21.30;;;-4.60;99.90;;;;;;5082652;27;21034;-61
2022/03/04 07:39:33;;;;;;;25.40;22.38;;;-4.40;99.90;;;;;;5083505;27;20540;-60
2022/03/04 07:42:12;;;;;;;24.80;22.13;;;-4.30;99.90;;;;;;5083104;28;20691;-61
2022/03/04 07:44:52;;;;;;;24.48;21.95;;;-4.20;99.90;;;;;;5145590;27;20546;-60
2022/03/04 07:47:32;;;;;;;22.25;20.05;;;-4.10;99.90;;;;;;5080974;28;20667;-60
2022/03/04 07:50:14;;;;;;;23.10;20.67;;;-3.90;99.90;;;;;;5082953;27;20555;-60
2022/03/04 07:52:53;;;;;;;23.08;20.10;;;-3.90;99.90;;;;;;5079138;28;21214;-60
2022/03/04 07:55:34;;;;;;;23.00;20.63;;;-3.80;99.90;;;;;;5083282;28;20832;-60
2022/03/04 07:58:14;;;;;;;24.75;22.17;;;-3.70;99.90;;;;;;5081730;28;20703;-60
2022/03/04 08:00:54;;;;;;;22.13;19.80;;;-3.60;99.90;;;;;;5082948;27;20569;-60
2022/03/04 08:03:34;;;;;;;23.67;20.25;;;-3.60;99.90;;;;;;5083990;28;20664;-60
2022/03/04 08:06:15;;;;;;;23.33;21.02;;;-3.40;99.90;;;;;;5084562;28;20687;-60
2022/03/04 08:08:54;;;;;;;23.27;20.88;;;-3.30;99.90;;;;;;5094767;27;20549;-60
2022/03/04 08:11:34;;;;;;;23.27;20.73;;;-3.20;99.90;;;;;;5140064;27;20899;-60
2022/03/04 08:14:13;;;;;;;24.95;21.00;;;-3.20;99.90;;;;;;5083267;27;20578;-60
2022/03/04 08:16:53;;;;;;;22.90;20.60;;;-3.10;99.90;;;;;;5104836;27;20546;-60
2022/03/04 08:19:35;;;;;;;24.30;21.70;;;-3.00;99.90;;;;;;5145612;27;20564;-60
2022/03/04 08:22:15;;;;;;;23.45;20.80;;;-2.90;99.90;;;;;;5084830;28;20587;-60
2022/03/04 08:24:55;;;;;;;23.38;20.70;;;-2.80;99.90;;;;;;5123533;27;21093;-60
2022/03/04 08:27:37;;;;;;;22.00;19.58;;;-2.70;99.90;;;;;;5102705;27;20673;-61
2022/03/04 08:30:18;;;;;;;21.98;19.77;;;-2.70;99.90;;;;;;5120129;27;20530;-60
2022/03/04 08:32:57;;;;;;;22.92;19.63;;;-2.60;99.90;;;;;;5084879;27;20565;-59
2022/03/04 08:35:37;;;;;;;22.85;20.42;;;-2.50;99.90;;;;;;5084387;28;20676;-60
2022/03/04 08:38:17;;;;;;;23.23;20.88;;;-2.50;99.90;;;;;;5083991;28;20699;-59
2022/03/04 08:40:57;;;;;;;21.65;19.50;;;-2.40;99.90;;;;;;5084053;27;20539;-60
2022/03/04 08:43:36;;;;;;;25.42;18.83;;;-2.30;99.90;;;;;;5083952;27;21127;-60
2022/03/04 08:46:16;;;;;;;26.67;21.67;;;-2.20;99.90;;;;;;5084386;27;20531;-60
2022/03/04 08:48:56;;;;;;;23.10;18.60;;;-2.20;99.90;;;;;;5083446;28;20547;-60
2022/03/04 08:51:37;;;;;;;21.30;19.00;;;-2.10;99.90;;;;;;5125515;27;20960;-60
2022/03/04 08:54:17;;;;;;;18.40;16.40;;;-2.00;99.90;;;;;;5104709;27;20678;-60
2022/03/04 08:56:57;;;;;;;20.38;18.10;;;-1.90;99.90;;;;;;5082883;28;20672;-60
2022/03/04 08:59:38;;;;;;;23.55;17.50;;;-1.80;99.90;;;;;;5083604;28;20679;-60
2022/03/04 09:02:18;;;;;;;17.50;15.75;;;-1.80;99.90;;;;;;5124899;27;20539;-59
2022/03/04 09:04:59;;;;;;;20.27;17.52;;;-1.70;99.90;;;;;;5084528;28;20699;-60
2022/03/04 09:07:39;;;;;;;20.85;17.40;;;-1.60;99.90;;;;;;5103807;27;20538;-60
2022/03/04 09:10:18;;;;;;;20.40;17.55;;;-1.40;99.90;;;;;;5080760;27;20559;-59
2022/03/04 09:12:58;;;;;;;17.70;15.88;;;-1.30;99.90;;;;;;5076375;28;21111;-60
2022/03/04 09:15:38;;;;;;;19.67;17.58;;;-1.20;99.90;;;;;;5076740;28;20583;-60
2022/03/04 09:18:17;;;;;;;17.80;16.00;;;-1.20;99.90;;;;;;5136299;27;20665;-59
2022/03/04 09:20:58;;;;;;;19.25;17.23;;;-1.10;99.90;;;;;;5083421;27;20557;-59
2022/03/04 09:23:37;;;;;;;16.38;14.70;;;-1.00;99.90;;;;;;5120115;27;21092;-60
2022/03/04 09:26:17;;;;;;;17.52;15.75;;;-0.90;99.90;;;;;;5121965;27;20560;-60
2022/03/04 09:28:57;;;;;;;15.95;14.45;;;-0.70;99.90;;;;;;5074730;27;20708;-60
2022/03/04 09:31:36;;;;;;;15.77;14.30;;;-0.70;99.90;;;;;;5126011;27;20557;-60
2022/03/04 09:34:16;;;;;;;15.32;13.82;;;-0.70;99.90;;;;;;5141949;27;20701;-59
2022/03/04 09:36:56;;;;;;;14.18;12.77;;;-0.60;99.90;;;;;;5081436;28;20879;-60
2022/03/04 09:39:36;;;;;;;15.88;14.25;;;-0.60;99.90;;;;;;5144630;27;20604;-59
2022/03/04 09:42:17;;;;;;;16.48;14.80;;;-0.40;99.90;;;;;;5152964;27;20542;-61
2022/03/04 09:44:57;;;;;;;15.48;13.93;;;-0.30;99.90;;;;;;5097914;22;20598;-60
2022/03/04 09:47:38;;;;;;;18.05;14.43;;;-0.20;99.90;;;;;;5091412;27;20573;-60
2022/03/04 09:50:18;;;;;;;14.98;13.00;;;-0.20;99.90;;;;;;5120773;27;20551;-60
2022/03/04 09:52:58;;;;;;;20.25;14.60;;;-0.10;99.90;;;;;;5117872;27;20557;-60
2022/03/04 09:55:38;;;;;;;18.35;16.50;;;0.00;99.90;;;;;;5150076;27;20976;-59
2022/03/04 09:58:19;;;;;;;19.17;15.38;;;0.00;99.90;;;;;;5083112;27;20544;-60
2022/03/04 10:01:00;;;;;;;14.95;13.45;;;0.10;99.90;;;;;;5102784;27;20542;-59
2022/03/04 10:03:47;;;;;;;15.55;12.68;;;0.10;99.90;;;;;;5141571;27;20960;-59
2022/03/04 10:06:28;;;;;;;13.43;12.02;;;0.20;99.90;;;;;;5115195;27;21214;-59
2022/03/04 10:09:07;;;;;;;10.50;8.32;;;0.40;99.90;;;;;;5120769;27;21057;-59
2022/03/04 10:11:47;;;;;;;7.68;6.78;;;0.70;99.90;;;;;;5063616;28;20553;-59
2022/03/04 10:14:26;;;;;;;8.73;7.10;;;0.90;99.90;;;;;;5105347;27;20566;-59
2022/03/04 10:17:06;;;;;;;7.70;7.03;;;1.10;99.90;;;;;;5122705;27;20813;-59
2022/03/04 10:19:52;;;;;;;8.02;7.32;;;1.30;99.90;;;;;;5101666;27;20571;-59
2022/03/04 10:22:42;;;;;;;7.20;6.60;;;1.50;99.90;;;;;;5144254;27;20572;-59
2022/03/04 10:25:24;;;;;;;6.25;5.65;;;1.60;99.90;;;;;;5121107;27;21215;-59
2022/03/04 10:28:10;;;;;;;6.50;5.78;;;1.90;99.90;;;;;;5062786;27;20544;-59
2022/03/04 10:30:51;;;;;;;6.88;6.18;;;2.40;99.90;;;;;;5141723;27;20668;-59
2022/03/04 10:33:31;;;;;;;8.10;6.05;;;2.70;99.90;;;;;;5080683;27;20877;-59
2022/03/04 10:36:13;;;;;;;5.30;4.85;;;3.00;99.90;;;;;;5083525;28;21068;-58
2022/03/04 10:39:08;;;;;;;7.72;6.10;;;3.00;99.90;;;;;;5082773;28;20679;-57
2022/03/04 10:41:51;;;;;;;6.05;5.55;;;3.30;99.90;;;;;;5136941;27;20675;-59
2022/03/04 10:44:31;;;;;;;7.35;6.65;;;3.60;99.90;;;;;;5069847;27;20549;-59
2022/03/04 10:47:11;;;;;;;8.10;7.30;;;3.90;99.90;;;;;;5140750;27;20555;-59
2022/03/04 10:49:53;;;;;;;8.23;7.20;;;4.20;99.90;;;;;;5117404;27;20741;-59
2022/03/04 10:52:32;;;;;;;6.35;4.38;;;4.40;99.90;;;;;;5102816;27;20591;-59
2022/03/04 10:55:12;;;;;;;5.20;4.63;;;4.80;99.90;;;;;;5055328;28;21606;-59
2022/03/04 10:57:52;;;;;;;4.35;3.92;;;5.20;99.90;;;;;;5142711;27;20543;-58
2022/03/04 11:00:35;;;;;;;3.58;3.22;;;5.40;99.90;;;;;;5102868;27;20550;-59
2022/03/04 11:03:19;;;;;;;5.55;5.05;;;5.70;99.90;;;;;;5146140;27;21070;-59
2022/03/04 11:06:01;;;;;;;5.00;4.60;;;6.00;99.90;;;;;;5124098;27;20601;-58
2022/03/04 11:08:42;;;;;;;5.22;4.72;;;6.10;99.90;;;;;;5082213;28;21035;-58
2022/03/04 11:11:22;;;;;;;5.70;4.30;;;6.30;99.90;;;;;;5082379;28;20876;-57
2022/03/04 11:14:02;;;;;;;4.10;2.17;;;6.10;99.90;;;;;;5154272;27;20683;-59
2022/03/04 11:16:42;;;;;;;3.20;2.90;;;5.90;96.30;;;;;;5105043;27;20568;-59
2022/03/04 11:19:22;;;;;;;4.03;2.97;;;5.50;99.90;;;;;;5127633;27;21189;-59
2022/03/04 11:22:01;;;;;;;3.50;2.92;;;5.40;99.90;;;;;;5153231;27;20572;-58
2022/03/04 11:24:41;;;;;;;3.13;2.78;;;5.30;98.80;;;;;;5145453;27;20558;-59
2022/03/04 11:27:24;;;;;;;2.67;2.47;;;5.00;98.00;;;;;;5144365;27;20677;-59
2022/03/04 11:30:05;;;;;;;3.30;3.00;;;4.90;97.50;;;;;;5122230;27;20541;-59
2022/03/04 11:32:46;;;;;;;4.30;3.90;;;4.90;99.90;;;;;;5104345;27;20537;-58
2022/03/04 11:36:12;;;;;;;5.72;5.22;;;5.40;99.90;;;;;;5105288;27;21126;-58
2022/03/04 11:39:16;;;;;;;7.38;4.07;;;5.80;99.90;;;;;;5104331;27;20545;-58
2022/03/04 11:42:15;;;;;;;12.73;9.60;;;6.10;95.20;;;;;;5146407;27;20658;-59
2022/03/04 11:44:59;;;;;;;7.82;6.20;;;6.50;97.50;;;;;;5098770;27;20563;-58
2022/03/04 11:47:44;;;;;;;3.88;3.58;;;6.90;95.20;;;;;;5123857;27;20576;-58
2022/03/04 11:50:32;;;;;;;5.13;3.97;;;7.10;91.90;;;;;;5081840;27;20976;-58
2022/03/04 11:53:16;;;;;;;3.75;2.40;;;7.20;90.40;;;;;;5147462;27;20531;-58
2022/03/04 11:56:15;;;;;;;2.65;2.45;;;7.40;83.40;;;;;;5126170;27;20563;-58
2022/03/04 11:59:11;;;;;;;2.95;1.85;;;7.70;73.60;;;;;;5104530;27;20546;-59
2022/03/04 12:01:51;;;;;;;1.77;1.67;;;7.60;62.00;;;;;;5071033;28;20695;-59
2022/03/04 12:04:36;;;;;;;2.15;1.77;;;7.10;62.50;;;;;;5125061;27;20644;-58
2022/03/04 12:07:16;;;;;;;5.60;4.60;;;7.00;65.00;;;;;;5144559;27;20893;-59
2022/03/04 12:09:58;;;;;;;4.13;3.72;;;6.90;86.30;;;;;;5144399;27;20558;-59
2022/03/04 12:12:39;;;;;;;4.28;3.88;;;6.50;83.60;;;;;;5125114;27;20539;-59
2022/03/04 12:15:36;;;;;;;8.82;5.28;;;6.10;91.60;;;;;;5084567;28;20703;-59
2022/03/04 12:18:25;;;;;;;4.60;4.13;;;5.40;98.50;;;;;;5145172;27;20856;-59
2022/03/04 12:21:10;;;;;;;4.85;4.35;;;4.90;99.90;;;;;;5124404;27;20562;-59
2022/03/04 12:24:01;;;;;;;6.20;4.93;;;4.70;99.90;;;;;;5082988;27;20547;-59
2022/03/04 12:26:45;;;;;;;5.72;5.05;;;4.80;99.90;;;;;;5084642;27;20543;-59
2022/03/04 12:29:45;;;;;;;6.20;5.70;;;4.90;99.90;;;;;;5103992;27;20546;-59
2022/03/04 12:32:25;;;;;;;5.53;5.13;;;5.00;99.90;;;;;;5105314;27;20542;-59
2022/03/04 12:35:04;;;;;;;5.32;4.82;;;5.10;99.90;;;;;;5084177;27;20551;-59
2022/03/04 12:37:44;;;;;;;5.60;5.10;;;5.30;99.90;;;;;;5104463;27;20537;-59
2022/03/04 12:40:24;;;;;;;5.22;4.80;;;5.50;99.90;;;;;;5104221;27;20537;-59
2022/03/04 12:43:05;;;;;;;6.07;4.50;;;5.70;99.90;;;;;;5142500;27;20563;-59
2022/03/04 12:45:46;;;;;;;5.03;4.38;;;5.90;99.90;;;;;;5143869;27;21070;-58
2022/03/04 12:48:27;;;;;;;4.22;3.92;;;6.00;99.90;;;;;;5102091;27;20553;-59
2022/03/04 12:51:29;;;;;;;4.85;4.45;;;6.10;99.90;;;;;;5101233;27;20665;-58
2022/03/04 12:54:15;;;;;;;5.22;4.72;;;6.10;99.90;;;;;;5155820;27;21199;-59
2022/03/04 12:56:56;;;;;;;6.38;5.30;;;6.10;99.90;;;;;;5146134;27;20547;-59
2022/03/04 12:59:47;;;;;;;6.25;5.38;;;5.70;99.90;;;;;;5144626;27;20576;-59
2022/03/04 13:02:35;;;;;;;5.43;4.93;;;5.40;99.90;;;;;;5084241;28;21099;-59
2022/03/04 13:05:27;;;;;;;5.40;4.82;;;5.00;99.90;;;;;;5131365;22;20619;-59
2022/03/04 13:08:07;;;;;;;4.80;4.10;;;4.80;99.90;;;;;;5102983;27;21020;-59
2022/03/04 13:10:47;;;;;;;5.45;4.88;;;4.70;99.90;;;;;;5136140;27;20538;-59
2022/03/04 13:13:26;;;;;;;5.20;4.70;;;4.60;99.90;;;;;;5136486;27;20530;-59
2022/03/04 13:16:06;;;;;;;7.47;6.88;;;4.60;99.90;;;;;;5103512;27;20673;-58
2022/03/04 13:18:47;;;;;;;4.70;4.30;;;4.70;99.90;;;;;;5097765;27;20980;-59
2022/03/04 13:21:41;;;;;;;4.70;4.25;;;5.00;99.90;;;;;;5067879;28;21040;-58
2022/03/04 13:24:26;;;;;;;4.32;4.00;;;5.30;99.90;;;;;;5097810;27;21047;-58
2022/03/04 13:27:09;;;;;;;4.18;3.83;;;5.80;99.90;;;;;;5100124;27;20565;-58
2022/03/04 13:29:49;;;;;;;4.25;3.88;;;6.40;99.90;;;;;;5119232;27;20958;-59
2022/03/04 13:32:30;;;;;;;4.78;4.35;;;6.60;99.90;;;;;;5119099;27;20552;-58
2022/03/04 13:35:14;;;;;;;3.88;3.58;;;6.90;98.20;;;;;;5083909;28;21040;-59
2022/03/04 13:37:53;;;;;;;4.20;3.90;;;7.40;96.10;;;;;;5116918;27;21082;-59
2022/03/04 13:40:35;;;;;;;6.00;5.50;;;7.70;95.20;;;;;;5073257;27;20555;-60
2022/03/04 13:43:27;;;;;;;5.55;5.10;;;7.00;99.90;;;;;;5103902;27;20665;-59
2022/03/04 13:46:16;;;;;;;6.03;5.53;;;6.00;99.90;;;;;;5083872;28;20588;-59
2022/03/04 13:49:02;;;;;;;5.75;5.15;;;5.60;99.90;;;;;;5081155;27;20591;-60